createdAt,value
2022-09-26T00:00:18.226Z,9.60
2022-09-26T00:02:51.507Z,7.20
2022-09-26T00:05:04.870Z,8.50
2022-09-26T00:07:18.214Z,11.40
2022-09-26T00:09:32.304Z,12.50
2022-09-26T00:11:45.771Z,11.10
2022-09-26T00:14:01.452Z,7.60
2022-09-26T00:16:16.840Z,7.20
2022-09-26T00:18:30.412Z,6.40
2022-09-26T00:20:45.161Z,14.50
2022-09-26T00:22:58.435Z,9.60
2022-09-26T00:25:14.036Z,9.30
2022-09-26T00:27:27.287Z,8.50
2022-09-26T00:29:40.511Z,10.20
2022-09-26T00:31:54.870Z,8.60
2022-09-26T00:34:08.616Z,8.20
2022-09-26T00:36:29.670Z,7.90
2022-09-26T00:38:50.466Z,7.30
2022-09-26T00:41:04.013Z,7.60
2022-09-26T00:43:33.742Z,11.00
2022-09-26T00:45:47.716Z,9.30
2022-09-26T00:48:05.047Z,11.10
2022-09-26T00:50:24.201Z,7.90
2022-09-26T00:52:40.330Z,9.20
2022-09-26T00:54:57.983Z,8.40
2022-09-26T00:57:16.064Z,8.40
2022-09-26T00:59:32.146Z,9.40
2022-09-26T01:01:46.375Z,8.10
2022-09-26T01:04:00.996Z,3.60
2022-09-26T01:06:15.236Z,6.70
2022-09-26T01:08:35.379Z,7.40
2022-09-26T01:10:48.873Z,9.00
2022-09-26T01:13:03.394Z,9.50
2022-09-26T01:15:17.460Z,13.10
2022-09-26T01:17:31.454Z,9.30
2022-09-26T01:20:02.826Z,7.30
2022-09-26T01:22:49.339Z,5.40
2022-09-26T01:25:22.285Z,7.50
2022-09-26T01:28:09.992Z,6.60
2022-09-26T01:30:27.831Z,4.90
2022-09-26T01:32:56.903Z,4.30
2022-09-26T01:35:20.873Z,9.10
2022-09-26T01:37:43.808Z,15.40
2022-09-26T01:40:07.301Z,11.60
2022-09-26T01:42:29.876Z,9.70
2022-09-26T01:47:05.472Z,7.80
2022-09-26T01:49:22.931Z,9.60
2022-09-26T01:51:42.721Z,13.10
2022-09-26T01:53:59.975Z,12.20
2022-09-26T01:56:17.773Z,10.20
2022-09-26T01:58:36.965Z,9.10
2022-09-26T02:00:54.042Z,4.60
2022-09-26T02:03:09.553Z,11.70
2022-09-26T02:05:30.499Z,14.80
2022-09-26T02:07:48.028Z,15.70
2022-09-26T02:10:05.470Z,16.30
2022-09-26T02:12:34.062Z,14.30
2022-09-26T02:14:51.460Z,14.20
2022-09-26T02:17:09.803Z,14.10
2022-09-26T02:19:26.974Z,12.10
2022-09-26T02:21:40.842Z,8.90
2022-09-26T02:23:56.343Z,9.50
2022-09-26T02:26:10.422Z,9.00
2022-09-26T02:28:24.632Z,7.80
2022-09-26T02:30:38.648Z,7.40
2022-09-26T02:32:52.558Z,7.40
2022-09-26T02:35:37.919Z,8.20
2022-09-26T02:37:51.269Z,5.90
2022-09-26T02:40:05.179Z,6.20
2022-09-26T02:42:29.587Z,5.10
2022-09-26T02:44:54.786Z,4.20
2022-09-26T02:47:26.669Z,7.60
2022-09-26T02:50:04.357Z,6.60
2022-09-26T02:52:33.738Z,7.10
2022-09-26T02:54:57.069Z,7.90
2022-09-26T02:57:30.087Z,7.80
2022-09-26T03:02:08.930Z,6.40
2022-09-26T03:04:33.791Z,6.60
2022-09-26T03:06:51.333Z,6.70
2022-09-26T03:09:06.955Z,7.20
2022-09-26T03:11:27.539Z,7.10
2022-09-26T03:13:44.037Z,7.10
2022-09-26T03:16:00.019Z,5.80
2022-09-26T03:18:18.321Z,5.20
2022-09-26T03:20:32.644Z,4.90
2022-09-26T03:22:46.972Z,5.50
2022-09-26T03:25:01.943Z,3.80
2022-09-26T03:27:20.094Z,5.00
2022-09-26T03:29:35.448Z,4.60
2022-09-26T03:31:51.549Z,4.50
2022-09-26T03:34:05.528Z,3.80
2022-09-26T03:36:18.915Z,3.70
2022-09-26T03:38:32.399Z,4.80
2022-09-26T03:40:56.979Z,6.10
2022-09-26T03:43:44.929Z,5.80
2022-09-26T03:45:58.534Z,6.40
2022-09-26T03:48:12.728Z,6.40
2022-09-26T03:50:26.224Z,6.70
2022-09-26T03:52:39.642Z,6.40
2022-09-26T03:54:54.434Z,4.90
2022-09-26T03:57:07.957Z,4.30
2022-09-26T03:59:24.233Z,4.00
2022-09-26T04:01:37.781Z,4.00
2022-09-26T04:03:52.757Z,3.40
2022-09-26T04:06:06.504Z,4.60
2022-09-26T04:08:19.927Z,5.90
2022-09-26T04:10:34.479Z,6.50
2022-09-26T04:12:48.653Z,5.80
2022-09-26T04:15:02.489Z,7.00
2022-09-26T04:17:18.001Z,7.50
2022-09-26T04:19:33.260Z,9.20
2022-09-26T04:21:46.933Z,8.50
2022-09-26T04:24:01.337Z,8.40
2022-09-26T04:26:21.733Z,8.80
2022-09-26T04:28:36.589Z,9.00
2022-09-26T04:30:50.748Z,11.00
2022-09-26T04:33:04.701Z,11.90
2022-09-26T04:35:18.063Z,12.50
2022-09-26T04:37:31.587Z,12.30
2022-09-26T04:39:44.993Z,12.30
2022-09-26T04:41:59.147Z,11.10
2022-09-26T04:44:13.995Z,11.00
2022-09-26T04:46:30.911Z,10.10
2022-09-26T04:48:45.516Z,9.40
2022-09-26T04:51:03.203Z,9.30
2022-09-26T04:53:16.415Z,8.70
2022-09-26T04:57:52.153Z,11.60
2022-09-26T05:00:06.015Z,11.70
2022-09-26T05:02:21.426Z,14.10
2022-09-26T05:04:34.734Z,15.20
2022-09-26T05:06:48.249Z,15.60
2022-09-26T05:09:10.198Z,15.00
2022-09-26T05:11:31.307Z,14.40
2022-09-26T05:13:45.155Z,13.50
2022-09-26T05:15:59.498Z,8.40
2022-09-26T05:18:13.707Z,8.60
2022-09-26T05:20:30.273Z,7.70
2022-09-26T05:22:46.016Z,7.10
2022-09-26T05:25:16.014Z,7.00
2022-09-26T05:27:29.693Z,8.20
2022-09-26T05:29:42.858Z,8.70
2022-09-26T05:31:57.643Z,6.80
2022-09-26T05:34:19.494Z,6.70
2022-09-26T05:36:33.971Z,5.90
2022-09-26T05:38:47.359Z,6.10
2022-09-26T05:41:02.031Z,6.20
2022-09-26T05:43:15.367Z,6.30
2022-09-26T05:45:28.917Z,5.80
2022-09-26T05:47:43.687Z,5.50
2022-09-26T05:49:57.803Z,5.70
2022-09-26T05:52:11.502Z,4.70
2022-09-26T05:54:25.402Z,5.10
2022-09-26T05:56:39.856Z,5.20
2022-09-26T05:59:13.006Z,4.20
2022-09-26T06:01:44.617Z,4.30
2022-09-26T06:04:04.065Z,4.60
2022-09-26T06:06:23.487Z,4.20
2022-09-26T06:08:42.279Z,4.30
2022-09-26T06:11:09.478Z,47.40
2022-09-26T06:13:22.962Z,49.30
2022-09-26T06:15:37.495Z,51.30
2022-09-26T06:17:51.358Z,53.20
2022-09-26T06:20:04.746Z,56.90
2022-09-26T06:22:18.792Z,52.20
2022-09-26T06:24:33.901Z,48.10
2022-09-26T06:26:48.908Z,40.80
2022-09-26T06:29:02.959Z,28.70
2022-09-26T06:31:23.269Z,28.30
2022-09-26T06:33:58.390Z,14.10
2022-09-26T06:36:30.697Z,8.80
2022-09-26T06:38:44.142Z,5.60
2022-09-26T06:41:02.094Z,4.70
2022-09-26T06:43:15.698Z,4.70
2022-09-26T06:45:50.240Z,4.90
2022-09-26T06:48:13.127Z,4.80
2022-09-26T06:50:43.153Z,4.80
2022-09-26T06:52:56.479Z,5.10
2022-09-26T06:55:12.459Z,6.00
2022-09-26T06:57:26.017Z,6.00
2022-09-26T06:59:40.275Z,7.30
2022-09-26T07:02:05.378Z,8.10
2022-09-26T07:04:37.080Z,7.40
2022-09-26T07:06:53.217Z,6.90
2022-09-26T07:09:15.062Z,6.00
2022-09-26T07:12:09.420Z,5.20
2022-09-26T07:14:12.080Z,5.20
2022-09-26T07:16:25.629Z,4.70
2022-09-26T07:18:57.497Z,4.80
2022-09-26T07:21:46.474Z,4.30
2022-09-26T07:24:19.911Z,3.80
2022-09-26T07:26:33.322Z,4.20
2022-09-26T07:28:50.817Z,4.30
2022-09-26T07:31:07.313Z,4.30
2022-09-26T07:35:45.626Z,3.50
2022-09-26T07:37:59.772Z,3.80
2022-09-26T07:40:15.506Z,4.70
2022-09-26T07:42:29.113Z,4.50
2022-09-26T07:47:32.433Z,4.20
2022-09-26T07:50:04.097Z,3.90
2022-09-26T07:52:37.491Z,4.30
2022-09-26T07:55:15.198Z,4.60
2022-09-26T07:57:49.591Z,5.80
2022-09-26T08:00:32.829Z,4.40
2022-09-26T08:03:06.075Z,3.90
2022-09-26T08:05:23.506Z,4.60
2022-09-26T08:07:38.470Z,4.30
2022-09-26T08:10:19.702Z,4.20
2022-09-26T08:12:59.920Z,4.50
2022-09-26T08:15:49.045Z,4.30
2022-09-26T08:18:10.030Z,4.30
2022-09-26T08:20:25.433Z,4.00
2022-09-26T08:22:41.964Z,4.10
2022-09-26T08:24:58.110Z,4.60
2022-09-26T08:27:28.211Z,4.90
2022-09-26T08:29:43.493Z,4.00
2022-09-26T08:31:56.970Z,3.80
2022-09-26T08:34:11.118Z,4.30
2022-09-26T08:36:24.380Z,4.60
2022-09-26T08:38:58.042Z,4.30
2022-09-26T08:42:04.773Z,4.50
2022-09-26T08:44:55.904Z,4.20
2022-09-26T08:47:44.033Z,3.90
2022-09-26T08:50:21.711Z,4.40
2022-09-26T08:52:44.005Z,3.90
2022-09-26T08:54:59.132Z,4.40
2022-09-26T08:57:29.597Z,4.50
2022-09-26T08:59:46.674Z,4.30
2022-09-26T09:02:08.263Z,4.60
2022-09-26T09:04:42.151Z,3.70
2022-09-26T09:07:01.864Z,4.00
2022-09-26T09:09:19.281Z,5.00
2022-09-26T09:12:08.688Z,3.70
2022-09-26T09:14:33.850Z,3.80
2022-09-26T09:16:58.900Z,4.00
2022-09-26T09:19:39.558Z,4.20
2022-09-26T09:22:36.656Z,3.70
2022-09-26T09:25:04.556Z,4.30
2022-09-26T09:30:17.113Z,4.00
2022-09-26T09:32:43.171Z,4.10
2022-09-26T09:35:22.721Z,3.30
2022-09-26T09:37:57.298Z,3.80
2022-09-26T09:40:33.973Z,3.70
2022-09-26T09:42:52.985Z,5.50
2022-09-26T09:45:09.149Z,4.00
2022-09-26T09:47:24.288Z,4.20
2022-09-26T09:49:38.839Z,3.60
2022-09-26T09:52:03.572Z,3.60
2022-09-26T09:54:43.578Z,4.50
2022-09-26T09:57:08.221Z,3.60
2022-09-26T09:59:44.330Z,4.70
2022-09-26T10:02:03.669Z,4.90
2022-09-26T10:04:36.069Z,4.30
2022-09-26T10:09:35.928Z,4.30
2022-09-26T10:12:01.913Z,3.90
2022-09-26T10:17:15.713Z,4.10
2022-09-26T10:19:43.433Z,3.70
2022-09-26T10:21:57.380Z,4.20
2022-09-26T10:24:25.247Z,3.90
2022-09-26T10:26:48.432Z,4.50
2022-09-26T10:29:25.224Z,4.00
2022-09-26T10:31:43.060Z,4.10
2022-09-26T10:34:06.742Z,5.00
2022-09-26T10:36:25.036Z,5.20
2022-09-26T10:39:12.262Z,6.20
2022-09-26T10:41:30.606Z,7.10
2022-09-26T10:43:55.232Z,6.20
2022-09-26T10:46:28.358Z,8.50
2022-09-26T10:49:03.410Z,10.00
2022-09-26T10:51:42.705Z,10.60
2022-09-26T10:53:58.550Z,12.00
2022-09-26T10:56:18.175Z,8.20
2022-09-26T10:58:33.645Z,10.60
2022-09-26T11:00:51.748Z,5.70
2022-09-26T11:03:07.787Z,5.40
2022-09-26T11:05:41.527Z,4.70
2022-09-26T11:08:02.870Z,5.00
2022-09-26T11:10:37.550Z,4.40
2022-09-26T11:13:07.174Z,5.50
2022-09-26T11:15:21.585Z,5.30
2022-09-26T11:17:51.913Z,5.90
2022-09-26T11:20:10.684Z,5.90
2022-09-26T11:22:28.517Z,7.70
2022-09-26T11:24:49.891Z,5.70
2022-09-26T11:27:15.255Z,8.50
2022-09-26T11:29:37.384Z,11.50
2022-09-26T11:32:00.055Z,9.30
2022-09-26T11:34:38.199Z,8.50
2022-09-26T11:37:14.609Z,10.50
2022-09-26T11:39:43.594Z,9.20
2022-09-26T11:42:10.592Z,7.90
2022-09-26T11:44:46.885Z,8.80
2022-09-26T11:47:22.347Z,8.30
2022-09-26T11:49:57.324Z,6.30
2022-09-26T11:52:48.369Z,7.20
2022-09-26T11:55:15.735Z,6.00
2022-09-26T11:57:43.200Z,6.60
2022-09-26T12:00:11.466Z,6.90
2022-09-26T12:02:58.556Z,6.60
2022-09-26T12:05:33.671Z,5.80
2022-09-26T12:07:52.298Z,7.70
2022-09-26T12:10:18.557Z,6.90
2022-09-26T12:12:43.105Z,7.20
2022-09-26T12:15:10.887Z,6.40
2022-09-26T12:17:28.760Z,6.80
2022-09-26T12:19:47.367Z,7.30
2022-09-26T12:22:25.743Z,6.40
2022-09-26T12:24:46.438Z,7.10
2022-09-26T12:27:08.133Z,6.00
2022-09-26T12:29:42.244Z,7.50
2022-09-26T12:32:10.721Z,5.80
2022-09-26T12:34:42.403Z,6.90
2022-09-26T12:37:05.635Z,6.30
2022-09-26T12:39:32.453Z,6.70
2022-09-26T12:42:09.596Z,5.80
2022-09-26T12:44:40.097Z,6.00
2022-09-26T12:47:08.554Z,6.90
2022-09-26T12:49:46.266Z,6.40
2022-09-26T12:52:05.429Z,6.50
2022-09-26T12:54:37.734Z,6.80
2022-09-26T12:57:06.173Z,6.30
2022-09-26T12:59:38.359Z,6.30
2022-09-26T13:02:18.151Z,7.40
2022-09-26T13:04:54.109Z,6.40
2022-09-26T13:07:20.058Z,6.60
2022-09-26T13:09:49.231Z,6.30
2022-09-26T13:12:18.075Z,6.30
2022-09-26T13:14:46.339Z,5.30
2022-09-26T13:17:12.705Z,5.80
2022-09-26T13:19:32.905Z,5.40
2022-09-26T13:21:52.280Z,5.30
2022-09-26T13:24:10.875Z,5.30
2022-09-26T13:26:30.207Z,5.00
2022-09-26T13:29:06.333Z,5.60
2022-09-26T13:31:24.205Z,4.80
2022-09-26T13:33:42.035Z,5.00
2022-09-26T13:35:59.268Z,5.40
2022-09-26T13:38:26.457Z,5.20
2022-09-26T13:40:48.416Z,4.50
2022-09-26T13:43:11.390Z,4.50
2022-09-26T13:45:33.516Z,4.90
2022-09-26T13:47:54.962Z,4.90
2022-09-26T13:50:24.486Z,4.50
2022-09-26T13:52:48.021Z,4.20
2022-09-26T13:55:06.568Z,3.80
2022-09-26T13:57:40.088Z,4.70
2022-09-26T13:59:59.702Z,4.30
2022-09-26T14:02:37.664Z,5.30
2022-09-26T14:04:52.039Z,4.60
2022-09-26T14:07:36.810Z,5.10
2022-09-26T14:10:08.741Z,3.70
2022-09-26T14:12:34.370Z,4.60
2022-09-26T14:14:54.082Z,4.20
2022-09-26T14:17:28.799Z,4.00
2022-09-26T14:19:46.173Z,4.10
2022-09-26T14:22:09.893Z,4.60
2022-09-26T14:24:44.228Z,4.40
2022-09-26T14:27:06.966Z,5.50
2022-09-26T14:31:44.262Z,4.30
2022-09-26T14:34:14.806Z,5.50
2022-09-26T14:36:38.439Z,4.30
2022-09-26T14:38:56.026Z,5.00
2022-09-26T14:41:10.032Z,4.40
2022-09-26T14:43:26.946Z,6.30
2022-09-26T14:45:52.604Z,5.90
2022-09-26T14:48:17.113Z,6.60
2022-09-26T14:50:36.533Z,6.00
2022-09-26T14:52:57.613Z,6.70
2022-09-26T14:55:12.020Z,6.20
2022-09-26T14:57:32.833Z,7.60
2022-09-26T14:59:49.515Z,7.00
2022-09-26T15:02:25.547Z,6.40
2022-09-26T15:04:39.833Z,6.80
2022-09-26T15:06:54.973Z,7.00
2022-09-26T15:09:15.622Z,5.70
2022-09-26T15:11:41.242Z,5.10
2022-09-26T15:13:56.544Z,6.10
2022-09-26T15:16:33.635Z,5.40
2022-09-26T15:18:49.471Z,5.20
2022-09-26T15:21:07.408Z,4.40
2022-09-26T15:23:32.299Z,4.20
2022-09-26T15:25:45.930Z,5.20
2022-09-26T15:28:00.546Z,4.10
2022-09-26T15:30:23.753Z,4.10
2022-09-26T15:32:38.136Z,3.10
2022-09-26T15:34:52.287Z,3.50
2022-09-26T15:37:12.416Z,4.40
2022-09-26T15:39:45.681Z,4.50
2022-09-26T15:42:14.915Z,6.00
2022-09-26T15:44:30.316Z,4.70
2022-09-26T15:46:44.083Z,4.00
2022-09-26T15:48:58.694Z,4.00
2022-09-26T15:51:19.384Z,4.60
2022-09-26T15:53:38.444Z,4.50
2022-09-26T15:55:57.341Z,4.30
2022-09-26T15:58:16.580Z,3.70
2022-09-26T16:00:33.433Z,3.90
2022-09-26T16:02:47.809Z,4.30
2022-09-26T16:05:02.192Z,4.60
2022-09-26T16:07:23.935Z,4.00
2022-09-26T16:09:44.248Z,4.50
2022-09-26T16:12:01.673Z,5.00
2022-09-26T16:14:27.959Z,4.40
2022-09-26T16:16:41.400Z,3.60
2022-09-26T16:19:01.810Z,3.60
2022-09-26T16:21:26.982Z,3.20
2022-09-26T16:23:51.556Z,3.40
2022-09-26T16:26:06.230Z,2.40
2022-09-26T16:28:49.304Z,3.00
2022-09-26T16:35:52.765Z,1.80
2022-09-26T16:38:08.553Z,2.80
2022-09-26T16:40:23.659Z,3.10
2022-09-26T16:42:37.991Z,2.50
2022-09-26T16:44:57.346Z,2.30
2022-09-26T16:47:31.934Z,3.60
2022-09-26T16:49:50.663Z,2.90
2022-09-26T16:52:28.072Z,2.80
2022-09-26T16:54:41.508Z,3.20
2022-09-26T16:56:55.769Z,3.50
2022-09-26T16:59:17.784Z,3.70
2022-09-26T17:01:47.816Z,2.40
2022-09-26T17:04:01.635Z,2.70
2022-09-26T17:06:16.349Z,3.10
2022-09-26T17:08:30.269Z,2.70
2022-09-26T17:10:45.177Z,2.60
2022-09-26T17:13:03.699Z,5.40
2022-09-26T17:15:24.629Z,6.30
2022-09-26T17:17:39.600Z,9.70
2022-09-26T17:19:59.392Z,9.40
2022-09-26T17:22:18.814Z,6.10
2022-09-26T17:24:34.278Z,5.60
2022-09-26T17:26:52.411Z,7.10
2022-09-26T17:29:08.364Z,7.10
2022-09-26T17:31:23.329Z,5.10
2022-09-26T17:33:37.779Z,4.90
2022-09-26T17:35:51.386Z,3.10
2022-09-26T17:38:04.887Z,3.60
2022-09-26T17:40:25.356Z,4.00
2022-09-26T17:42:38.677Z,6.40
2022-09-26T17:44:52.243Z,5.70
2022-09-26T17:47:06.227Z,10.30
2022-09-26T17:49:23.956Z,6.90
2022-09-26T17:51:37.950Z,7.00
2022-09-26T17:53:53.531Z,5.20
2022-09-26T17:56:07.738Z,5.20
2022-09-26T17:58:21.452Z,5.60
2022-09-26T18:00:44.818Z,4.40
2022-09-26T18:03:05.058Z,5.40
2022-09-26T18:05:23.884Z,6.90
2022-09-26T18:07:41.753Z,5.00
2022-09-26T18:09:55.688Z,3.20
2022-09-26T18:12:13.528Z,4.00
2022-09-26T18:14:26.751Z,3.60
2022-09-26T18:16:40.150Z,4.70
2022-09-26T18:18:53.871Z,5.50
2022-09-26T18:21:07.212Z,4.20
2022-09-26T18:23:24.722Z,5.80
2022-09-26T18:25:40.301Z,4.90
2022-09-26T18:27:55.337Z,4.20
2022-09-26T18:30:10.262Z,3.00
2022-09-26T18:32:29.298Z,5.80
2022-09-26T18:34:42.609Z,4.60
2022-09-26T18:36:58.245Z,3.20
2022-09-26T18:39:11.692Z,5.80
2022-09-26T18:41:27.785Z,4.50
2022-09-26T18:43:43.565Z,6.20
2022-09-26T18:45:58.785Z,4.60
2022-09-26T18:48:16.381Z,6.00
2022-09-26T18:50:36.127Z,5.30
2022-09-26T18:52:49.472Z,4.90
2022-09-26T18:55:18.924Z,4.50
2022-09-26T18:57:48.674Z,4.70
2022-09-26T19:00:02.293Z,6.10
2022-09-26T19:02:25.032Z,3.70
2022-09-26T19:04:38.631Z,5.00
2022-09-26T19:07:01.115Z,4.30
2022-09-26T19:11:30.442Z,4.40
2022-09-26T19:13:43.683Z,3.30
2022-09-26T19:15:57.025Z,4.20
2022-09-26T19:18:11.126Z,3.60
2022-09-26T19:20:24.467Z,3.60
2022-09-26T19:22:37.911Z,3.70
2022-09-26T19:24:53.796Z,2.70
2022-09-26T19:27:09.372Z,3.10
2022-09-26T19:29:31.896Z,2.10
2022-09-26T19:31:45.693Z,3.00
2022-09-26T19:34:00.105Z,2.80
2022-09-26T19:36:16.047Z,3.40
2022-09-26T19:38:30.360Z,3.00
2022-09-26T19:40:48.361Z,3.60
2022-09-26T19:43:02.216Z,3.80
2022-09-26T19:45:16.957Z,3.80
2022-09-26T19:47:31.716Z,3.40
2022-09-26T19:49:45.041Z,3.40
2022-09-26T19:51:58.380Z,4.10
2022-09-26T19:54:13.739Z,3.90
2022-09-26T19:56:27.638Z,3.90
2022-09-26T19:58:41.268Z,2.80
2022-09-26T20:00:57.251Z,2.80
2022-09-26T20:03:12.732Z,3.50
2022-09-26T20:05:28.113Z,4.60
2022-09-26T20:07:41.347Z,4.10
2022-09-26T20:09:56.017Z,5.50
2022-09-26T20:12:09.631Z,3.50
2022-09-26T20:14:28.694Z,4.70
2022-09-26T20:16:45.115Z,5.20
2022-09-26T20:18:58.836Z,3.30
2022-09-26T20:21:14.428Z,3.50
2022-09-26T20:23:29.613Z,5.20
2022-09-26T20:25:43.021Z,3.40
2022-09-26T20:27:56.362Z,3.60
2022-09-26T20:30:30.373Z,2.80
2022-09-26T20:32:44.035Z,3.20
2022-09-26T20:35:00.375Z,2.10
2022-09-26T20:37:16.153Z,2.30
2022-09-26T20:39:30.692Z,2.40
2022-09-26T20:41:45.666Z,3.70
2022-09-26T20:44:04.869Z,4.60
2022-09-26T20:46:19.326Z,4.20
2022-09-26T20:48:35.656Z,3.50
2022-09-26T20:50:49.725Z,3.20
2022-09-26T20:53:02.950Z,5.40
2022-09-26T20:55:20.785Z,3.60
2022-09-26T20:57:34.059Z,4.90
2022-09-26T20:59:47.349Z,4.80
2022-09-26T21:02:01.678Z,4.20
2022-09-26T21:04:20.154Z,4.20
2022-09-26T21:06:37.522Z,4.90
2022-09-26T21:08:50.980Z,6.30
2022-09-26T21:11:04.341Z,3.60
2022-09-26T21:13:18.083Z,5.50
2022-09-26T21:15:33.055Z,5.70
2022-09-26T21:17:47.018Z,7.60
2022-09-26T21:20:00.351Z,5.30
2022-09-26T21:22:38.076Z,4.50
2022-09-26T21:24:52.124Z,3.70
2022-09-26T21:27:05.375Z,4.50
2022-09-26T21:29:21.532Z,7.90
2022-09-26T21:31:36.656Z,5.40
2022-09-26T21:33:50.038Z,4.30
2022-09-26T21:36:04.064Z,7.90
2022-09-26T21:38:17.504Z,5.70
2022-09-26T21:40:35.032Z,5.30
2022-09-26T21:42:51.669Z,4.50
2022-09-26T21:45:09.190Z,4.50
2022-09-26T21:47:23.154Z,4.40
2022-09-26T21:49:36.479Z,3.80
2022-09-26T21:51:53.135Z,4.10
2022-09-26T21:54:10.313Z,6.20
2022-09-26T21:56:27.381Z,3.40
2022-09-26T21:58:44.507Z,5.20
2022-09-26T22:00:58.888Z,5.60
2022-09-26T22:03:12.379Z,4.20
2022-09-26T22:05:25.640Z,7.30
2022-09-26T22:07:38.956Z,5.20
2022-09-26T22:09:52.565Z,5.40
2022-09-26T22:12:06.068Z,6.60
2022-09-26T22:14:19.541Z,3.00
2022-09-26T22:16:32.880Z,4.10
2022-09-26T22:18:46.526Z,3.90
2022-09-26T22:21:06.056Z,6.00
2022-09-26T22:23:19.475Z,4.40
2022-09-26T22:25:32.984Z,4.70
2022-09-26T22:27:46.294Z,6.40
2022-09-26T22:29:59.699Z,5.00
2022-09-26T22:32:13.137Z,7.30
2022-09-26T22:34:27.412Z,5.40
2022-09-26T22:36:40.986Z,5.70
2022-09-26T22:38:54.541Z,8.60
2022-09-26T22:41:09.449Z,8.40
2022-09-26T22:43:22.673Z,7.50
2022-09-26T22:45:36.578Z,6.80
2022-09-26T22:47:49.913Z,3.10
2022-09-26T22:50:03.312Z,7.50
2022-09-26T22:52:16.615Z,8.20
2022-09-26T22:54:30.042Z,5.20
2022-09-26T22:56:43.415Z,3.60
2022-09-26T22:58:57.414Z,4.20
2022-09-26T23:01:12.787Z,5.70
2022-09-26T23:03:26.406Z,3.80
2022-09-26T23:05:40.870Z,3.70
2022-09-26T23:07:56.081Z,5.30
2022-09-26T23:10:09.577Z,4.70
2022-09-26T23:12:22.949Z,7.40
2022-09-26T23:14:36.207Z,5.60
2022-09-26T23:16:49.608Z,6.60
2022-09-26T23:19:03.673Z,5.20
2022-09-26T23:21:18.246Z,8.00
2022-09-26T23:23:31.569Z,4.70
2022-09-26T23:25:51.451Z,3.10
2022-09-26T23:28:04.869Z,5.20
2022-09-26T23:30:19.358Z,4.00
2022-09-26T23:32:32.602Z,6.00
2022-09-26T23:34:45.819Z,6.00
2022-09-26T23:36:59.647Z,9.50
2022-09-26T23:39:13.030Z,7.10
2022-09-26T23:41:26.360Z,6.50
2022-09-26T23:43:39.974Z,6.20
2022-09-26T23:45:53.387Z,7.40
2022-09-26T23:48:07.063Z,7.00
2022-09-26T23:50:20.383Z,6.00
2022-09-26T23:52:33.505Z,9.20
2022-09-26T23:54:46.887Z,4.60
2022-09-26T23:57:00.137Z,3.80
2022-09-26T23:59:13.510Z,3.00
